< < Back
Terminal Aerodrome Forecast


Current Version              Previous Versions:   1  2  3  4  5  6  7  8  9  

Terminal Aerodrome Forecast

349
FTUS42 KJAX 231700
TAFJAX
TAF
KJAX 231740Z 2318/2418 04008KT P6SM FEW040
     FM232300 VRB02KT P6SM SKC
     FM241400 03007KT P6SM FEW030=

Latest METAR

771
SAUS80 KWBC 231900 RRA
MTRJAX
METAR KJAX 231856Z 05005KT 10SM FEW045 22/09 A3000 RMK AO2 SLP158
T02220089


USA.gov is the U.S. government's official web portal to all federal, state and local government web resources and services.